sensor_id;sensor_type;location;lat;lon;timestamp;pressure;altitude;pressure_sealevel;temperature;humidity
20015;BME280;61787;42.022;23.078;2023-05-01T00:00:38;96690.28;;;12.25;75.96
20015;BME280;61787;42.022;23.078;2023-05-01T00:01:40;96687.59;;;12.25;75.65
20015;BME280;61787;42.022;23.078;2023-05-01T00:02:41;96690.81;;;12.31;75.14
20015;BME280;61787;42.022;23.078;2023-05-01T00:03:43;96687.09;;;12.35;74.70
20015;BME280;61787;42.022;23.078;2023-05-01T00:04:45;96689.06;;;12.38;74.85
20015;BME280;61787;42.022;23.078;2023-05-01T00:05:47;96692.19;;;12.41;75.08
20015;BME280;61787;42.022;23.078;2023-05-01T00:06:48;96686.97;;;12.48;74.62
20015;BME280;61787;42.022;23.078;2023-05-01T00:07:50;96689.13;;;12.58;74.22
20015;BME280;61787;42.022;23.078;2023-05-01T00:08:52;96694.78;;;12.68;73.58
20015;BME280;61787;42.022;23.078;2023-05-01T00:09:53;96693.31;;;12.71;73.35
20015;BME280;61787;42.022;23.078;2023-05-01T00:10:55;96688.78;;;12.75;73.12
20015;BME280;61787;42.022;23.078;2023-05-01T00:11:57;96690.50;;;12.83;72.88
20015;BME280;61787;42.022;23.078;2023-05-01T00:12:59;96687.53;;;12.88;72.87
20015;BME280;61787;42.022;23.078;2023-05-01T00:14:00;96693.47;;;12.78;73.55
20015;BME280;61787;42.022;23.078;2023-05-01T00:15:02;96689.56;;;12.75;73.59
20015;BME280;61787;42.022;23.078;2023-05-01T00:16:10;96699.09;;;12.73;73.85
20015;BME280;61787;42.022;23.078;2023-05-01T00:17:12;96691.50;;;12.59;73.68
20015;BME280;61787;42.022;23.078;2023-05-01T00:18:14;96698.34;;;12.57;74.03
20015;BME280;61787;42.022;23.078;2023-05-01T00:19:17;96701.13;;;12.45;73.36
20015;BME280;61787;42.022;23.078;2023-05-01T00:20:19;96696.53;;;12.29;75.08
20015;BME280;61787;42.022;23.078;2023-05-01T00:21:20;96702.16;;;12.24;74.90
20015;BME280;61787;42.022;23.078;2023-05-01T00:22:22;96696.09;;;12.27;74.89
20015;BME280;61787;42.022;23.078;2023-05-01T00:23:24;96704.13;;;12.12;74.84
20015;BME280;61787;42.022;23.078;2023-05-01T00:24:25;96701.66;;;11.91;75.54
20015;BME280;61787;42.022;23.078;2023-05-01T00:25:27;96703.28;;;11.80;76.88
20015;BME280;61787;42.022;23.078;2023-05-01T00:26:29;96698.50;;;11.73;77.42
20015;BME280;61787;42.022;23.078;2023-05-01T00:27:32;96700.19;;;11.66;78.30
20015;BME280;61787;42.022;23.078;2023-05-01T00:28:33;96705.00;;;11.60;78.23
20015;BME280;61787;42.022;23.078;2023-05-01T00:29:35;96701.03;;;11.54;79.29
20015;BME280;61787;42.022;23.078;2023-05-01T00:30:37;96702.47;;;11.51;79.88
20015;BME280;61787;42.022;23.078;2023-05-01T00:31:38;96698.84;;;11.60;79.78
20015;BME280;61787;42.022;23.078;2023-05-01T00:32:42;96706.00;;;11.68;79.42
20015;BME280;61787;42.022;23.078;2023-05-01T00:33:44;96705.47;;;11.74;79.08
20015;BME280;61787;42.022;23.078;2023-05-01T00:34:45;96706.75;;;11.80;78.48
20015;BME280;61787;42.022;23.078;2023-05-01T00:35:48;96712.31;;;11.87;78.59
20015;BME280;61787;42.022;23.078;2023-05-01T00:36:51;96707.25;;;11.98;77.73
20015;BME280;61787;42.022;23.078;2023-05-01T00:37:53;96711.38;;;11.95;77.71
20015;BME280;61787;42.022;23.078;2023-05-01T00:38:54;96709.06;;;11.94;77.75
20015;BME280;61787;42.022;23.078;2023-05-01T00:39:56;96711.03;;;11.97;77.81
20015;BME280;61787;42.022;23.078;2023-05-01T00:40:58;96706.13;;;11.99;77.01
20015;BME280;61787;42.022;23.078;2023-05-01T00:42:00;96705.41;;;12.02;77.04
20015;BME280;61787;42.022;23.078;2023-05-01T00:43:02;96713.16;;;12.04;77.72
20015;BME280;61787;42.022;23.078;2023-05-01T00:44:04;96714.53;;;12.13;77.53
20015;BME280;61787;42.022;23.078;2023-05-01T00:45:06;96715.84;;;12.19;76.44
20015;BME280;61787;42.022;23.078;2023-05-01T00:46:08;96715.16;;;12.22;76.70
20015;BME280;61787;42.022;23.078;2023-05-01T00:47:11;96712.91;;;12.24;76.12
20015;BME280;61787;42.022;23.078;2023-05-01T00:48:13;96715.16;;;12.22;75.72
20015;BME280;61787;42.022;23.078;2023-05-01T00:49:15;96715.94;;;12.23;76.18
20015;BME280;61787;42.022;23.078;2023-05-01T00:50:18;96712.22;;;12.27;76.26
20015;BME280;61787;42.022;23.078;2023-05-01T00:51:19;96709.53;;;12.27;75.39
20015;BME280;61787;42.022;23.078;2023-05-01T00:52:23;96715.66;;;12.12;76.15
20015;BME280;61787;42.022;23.078;2023-05-01T00:53:24;96723.34;;;11.98;76.64
20015;BME280;61787;42.022;23.078;2023-05-01T00:54:28;96724.41;;;11.93;77.17
20015;BME280;61787;42.022;23.078;2023-05-01T00:55:30;96718.03;;;11.86;76.92
20015;BME280;61787;42.022;23.078;2023-05-01T00:56:33;96720.09;;;11.77;77.51
20015;BME280;61787;42.022;23.078;2023-05-01T00:57:35;96718.81;;;11.86;77.43
20015;BME280;61787;42.022;23.078;2023-05-01T00:58:37;96718.25;;;11.93;76.99
20015;BME280;61787;42.022;23.078;2023-05-01T00:59:39;96721.25;;;11.91;76.81
20015;BME280;61787;42.022;23.078;2023-05-01T01:00:41;96718.94;;;11.90;77.78
20015;BME280;61787;42.022;23.078;2023-05-01T01:01:43;96719.56;;;11.99;77.02
20015;BME280;61787;42.022;23.078;2023-05-01T01:02:45;96720.97;;;12.09;76.61
20015;BME280;61787;42.022;23.078;2023-05-01T01:03:47;96718.81;;;12.14;76.02
20015;BME280;61787;42.022;23.078;2023-05-01T01:04:49;96721.66;;;12.21;75.75
20015;BME280;61787;42.022;23.078;2023-05-01T01:05:56;96725.56;;;12.24;75.65
20015;BME280;61787;42.022;23.078;2023-05-01T01:07:11;96725.75;;;12.15;75.59
20015;BME280;61787;42.022;23.078;2023-05-01T01:08:38;96729.38;;;12.23;75.11
20015;BME280;61787;42.022;23.078;2023-05-01T01:13:29;96734.53;;;12.44;73.92
20015;BME280;61787;42.022;23.078;2023-05-01T01:15:44;96727.50;;;12.55;73.53
20015;BME280;61787;42.022;23.078;2023-05-01T01:17:01;96735.31;;;12.60;73.79
20015;BME280;61787;42.022;23.078;2023-05-01T01:18:15;96736.63;;;12.66;73.61
20015;BME280;61787;42.022;23.078;2023-05-01T01:19:33;96736.34;;;12.71;73.15
20015;BME280;61787;42.022;23.078;2023-05-01T01:21:11;96734.97;;;12.77;73.37
20015;BME280;61787;42.022;23.078;2023-05-01T01:22:21;96729.41;;;12.70;73.17
20015;BME280;61787;42.022;23.078;2023-05-01T01:26:11;96744.84;;;12.42;75.59
20015;BME280;61787;42.022;23.078;2023-05-01T01:31:51;96755.16;;;11.96;78.98
20015;BME280;61787;42.022;23.078;2023-05-01T01:34:54;96753.66;;;11.83;79.26
20015;BME280;61787;42.022;23.078;2023-05-01T01:36:03;96745.69;;;11.86;79.31
20015;BME280;61787;42.022;23.078;2023-05-01T01:37:12;96758.34;;;11.86;79.17
20015;BME280;61787;42.022;23.078;2023-05-01T01:38:23;96744.28;;;11.65;80.96
20015;BME280;61787;42.022;23.078;2023-05-01T01:40:02;96745.22;;;11.44;83.02
20015;BME280;61787;42.022;23.078;2023-05-01T01:41:16;96758.09;;;11.39;82.86
20015;BME280;61787;42.022;23.078;2023-05-01T01:42:33;96750.19;;;11.30;83.90
20015;BME280;61787;42.022;23.078;2023-05-01T01:43:39;96760.38;;;11.25;84.21
20015;BME280;61787;42.022;23.078;2023-05-01T01:44:49;96755.22;;;11.20;84.20
20015;BME280;61787;42.022;23.078;2023-05-01T01:45:57;96762.50;;;11.19;83.95
20015;BME280;61787;42.022;23.078;2023-05-01T01:47:04;96761.84;;;11.10;83.53
20015;BME280;61787;42.022;23.078;2023-05-01T01:48:13;96762.72;;;11.14;84.29
20015;BME280;61787;42.022;23.078;2023-05-01T01:49:20;96759.81;;;11.19;83.58
20015;BME280;61787;42.022;23.078;2023-05-01T01:50:24;96759.16;;;11.22;81.84
20015;BME280;61787;42.022;23.078;2023-05-01T01:51:27;96764.53;;;11.22;82.71
20015;BME280;61787;42.022;23.078;2023-05-01T01:52:30;96759.16;;;11.22;82.73
20015;BME280;61787;42.022;23.078;2023-05-01T01:53:34;96759.25;;;11.26;82.16
20015;BME280;61787;42.022;23.078;2023-05-01T01:54:41;96755.34;;;11.23;82.03
20015;BME280;61787;42.022;23.078;2023-05-01T01:55:45;96756.00;;;11.20;82.42
20015;BME280;61787;42.022;23.078;2023-05-01T01:56:49;96759.81;;;11.19;82.61
20015;BME280;61787;42.022;23.078;2023-05-01T01:57:52;96760.72;;;11.23;82.74
20015;BME280;61787;42.022;23.078;2023-05-01T01:58:54;96761.72;;;11.31;81.87
20015;BME280;61787;42.022;23.078;2023-05-01T01:59:57;96758.00;;;11.35;82.22
20015;BME280;61787;42.022;23.078;2023-05-01T02:00:59;96759.56;;;11.36;82.17
20015;BME280;61787;42.022;23.078;2023-05-01T02:02:02;96754.34;;;11.28;82.95
20015;BME280;61787;42.022;23.078;2023-05-01T02:03:05;96754.03;;;11.17;83.63
20015;BME280;61787;42.022;23.078;2023-05-01T02:04:10;96761.63;;;11.15;83.58
20015;BME280;61787;42.022;23.078;2023-05-01T02:05:14;96757.25;;;11.10;83.99
20015;BME280;61787;42.022;23.078;2023-05-01T02:06:16;96750.22;;;11.06;85.07
20015;BME280;61787;42.022;23.078;2023-05-01T02:07:18;96752.03;;;11.02;84.54
20015;BME280;61787;42.022;23.078;2023-05-01T02:08:22;96754.25;;;11.00;85.85
20015;BME280;61787;42.022;23.078;2023-05-01T02:09:27;96751.13;;;10.86;85.91
20015;BME280;61787;42.022;23.078;2023-05-01T02:10:28;96746.53;;;10.74;86.81
20015;BME280;61787;42.022;23.078;2023-05-01T02:11:31;96749.53;;;10.73;87.05
20015;BME280;61787;42.022;23.078;2023-05-01T02:12:34;96750.00;;;10.75;86.40
20015;BME280;61787;42.022;23.078;2023-05-01T02:13:37;96749.09;;;10.83;86.75
20015;BME280;61787;42.022;23.078;2023-05-01T02:14:41;96751.47;;;10.96;86.19
20015;BME280;61787;42.022;23.078;2023-05-01T02:15:44;96752.91;;;11.06;85.30
20015;BME280;61787;42.022;23.078;2023-05-01T02:16:47;96754.03;;;11.17;84.50
20015;BME280;61787;42.022;23.078;2023-05-01T02:17:51;96753.09;;;11.25;84.11
20015;BME280;61787;42.022;23.078;2023-05-01T02:18:54;96751.31;;;11.29;83.55
20015;BME280;61787;42.022;23.078;2023-05-01T02:19:56;96755.09;;;11.40;82.67
20015;BME280;61787;42.022;23.078;2023-05-01T02:20:58;96753.50;;;11.51;82.13
20015;BME280;61787;42.022;23.078;2023-05-01T02:22:01;96755.72;;;11.62;81.29
20015;BME280;61787;42.022;23.078;2023-05-01T02:23:06;96759.81;;;11.71;81.12
20015;BME280;61787;42.022;23.078;2023-05-01T02:24:09;96749.66;;;11.77;80.64
20015;BME280;61787;42.022;23.078;2023-05-01T02:25:12;96752.09;;;11.82;80.39
20015;BME280;61787;42.022;23.078;2023-05-01T02:26:16;96758.69;;;11.84;80.34
20015;BME280;61787;42.022;23.078;2023-05-01T02:27:38;96755.56;;;11.82;79.91
20015;BME280;61787;42.022;23.078;2023-05-01T02:28:41;96760.84;;;11.79;80.47
20015;BME280;61787;42.022;23.078;2023-05-01T02:29:43;96761.09;;;11.74;80.47
20015;BME280;61787;42.022;23.078;2023-05-01T02:30:45;96753.94;;;11.53;81.25
20015;BME280;61787;42.022;23.078;2023-05-01T02:31:47;96766.06;;;11.35;82.26
20015;BME280;61787;42.022;23.078;2023-05-01T02:32:49;96764.72;;;11.29;82.11
20015;BME280;61787;42.022;23.078;2023-05-01T02:33:50;96759.81;;;11.19;82.87
20015;BME280;61787;42.022;23.078;2023-05-01T02:34:53;96756.56;;;11.13;83.09
20015;BME280;61787;42.022;23.078;2023-05-01T02:35:54;96764.28;;;11.15;82.81
20015;BME280;61787;42.022;23.078;2023-05-01T02:36:56;96768.69;;;11.07;83.43
20015;BME280;61787;42.022;23.078;2023-05-01T02:37:57;96767.22;;;11.10;83.63
20015;BME280;61787;42.022;23.078;2023-05-01T02:38:59;96760.28;;;11.09;83.61
20015;BME280;61787;42.022;23.078;2023-05-01T02:40:02;96767.53;;;11.08;84.87
20015;BME280;61787;42.022;23.078;2023-05-01T02:41:05;96763.41;;;11.11;84.14
20015;BME280;61787;42.022;23.078;2023-05-01T02:42:08;96762.53;;;11.07;84.83
20015;BME280;61787;42.022;23.078;2023-05-01T02:43:12;96765.09;;;11.03;83.62
20015;BME280;61787;42.022;23.078;2023-05-01T02:44:16;96769.69;;;10.91;83.62
20015;BME280;61787;42.022;23.078;2023-05-01T02:45:21;96768.44;;;10.76;84.82
20015;BME280;61787;42.022;23.078;2023-05-01T02:46:24;96767.44;;;10.68;84.33
20015;BME280;61787;42.022;23.078;2023-05-01T02:47:29;96767.00;;;10.79;85.38
20015;BME280;61787;42.022;23.078;2023-05-01T02:48:32;96768.66;;;10.83;84.45
20015;BME280;61787;42.022;23.078;2023-05-01T02:49:36;96772.34;;;10.79;84.14
20015;BME280;61787;42.022;23.078;2023-05-01T02:50:38;96771.91;;;10.77;84.66
20015;BME280;61787;42.022;23.078;2023-05-01T02:51:45;96771.56;;;10.78;84.21
20015;BME280;61787;42.022;23.078;2023-05-01T02:52:47;96773.47;;;10.65;84.88
20015;BME280;61787;42.022;23.078;2023-05-01T02:53:49;96771.00;;;10.60;85.30
20015;BME280;61787;42.022;23.078;2023-05-01T02:54:50;96772.78;;;10.68;85.10
20015;BME280;61787;42.022;23.078;2023-05-01T02:55:52;96774.81;;;10.72;84.89
20015;BME280;61787;42.022;23.078;2023-05-01T02:56:54;96765.41;;;10.78;85.31
20015;BME280;61787;42.022;23.078;2023-05-01T02:57:58;96776.50;;;10.88;85.24
20015;BME280;61787;42.022;23.078;2023-05-01T02:59:00;96776.63;;;10.92;84.18
20015;BME280;61787;42.022;23.078;2023-05-01T03:00:02;96775.06;;;10.91;84.74
20015;BME280;61787;42.022;23.078;2023-05-01T03:01:04;96779.88;;;10.97;84.46
20015;BME280;61787;42.022;23.078;2023-05-01T03:02:06;96782.88;;;10.96;85.86
20015;BME280;61787;42.022;23.078;2023-05-01T03:03:08;96781.63;;;11.05;85.53
20015;BME280;61787;42.022;23.078;2023-05-01T03:04:09;96776.16;;;11.14;85.32
20015;BME280;61787;42.022;23.078;2023-05-01T03:05:11;96785.13;;;11.18;84.80
20015;BME280;61787;42.022;23.078;2023-05-01T03:06:13;96781.41;;;11.23;85.44
20015;BME280;61787;42.022;23.078;2023-05-01T03:07:14;96782.06;;;11.20;84.90
20015;BME280;61787;42.022;23.078;2023-05-01T03:08:16;96779.75;;;11.18;84.42
20015;BME280;61787;42.022;23.078;2023-05-01T03:09:18;96779.94;;;11.25;84.53
20015;BME280;61787;42.022;23.078;2023-05-01T03:10:19;96779.47;;;11.35;84.65
20015;BME280;61787;42.022;23.078;2023-05-01T03:11:21;96779.34;;;11.44;84.30
20015;BME280;61787;42.022;23.078;2023-05-01T03:12:24;96780.69;;;11.50;83.62
20015;BME280;61787;42.022;23.078;2023-05-01T03:13:26;96779.34;;;11.56;83.12
20015;BME280;61787;42.022;23.078;2023-05-01T03:14:28;96781.69;;;11.58;83.10
20015;BME280;61787;42.022;23.078;2023-05-01T03:15:29;96785.03;;;11.54;82.96
20015;BME280;61787;42.022;23.078;2023-05-01T03:16:31;96787.63;;;11.51;83.58
20015;BME280;61787;42.022;23.078;2023-05-01T03:17:32;96783.03;;;11.51;83.08
20015;BME280;61787;42.022;23.078;2023-05-01T03:18:34;96781.47;;;11.50;83.06
20015;BME280;61787;42.022;23.078;2023-05-01T03:19:36;96785.81;;;11.55;82.94
20015;BME280;61787;42.022;23.078;2023-05-01T03:20:38;96786.38;;;11.61;83.14
20015;BME280;61787;42.022;23.078;2023-05-01T03:21:39;96775.50;;;11.69;82.00
20015;BME280;61787;42.022;23.078;2023-05-01T03:22:41;96781.44;;;11.75;82.44
20015;BME280;61787;42.022;23.078;2023-05-01T03:23:42;96785.34;;;11.77;82.43
20015;BME280;61787;42.022;23.078;2023-05-01T03:24:44;96790.63;;;11.74;81.50
20015;BME280;61787;42.022;23.078;2023-05-01T03:25:48;96784.47;;;11.73;81.43
20015;BME280;61787;42.022;23.078;2023-05-01T03:26:50;96788.38;;;11.76;81.53
20015;BME280;61787;42.022;23.078;2023-05-01T03:27:51;96790.38;;;11.79;81.28
20015;BME280;61787;42.022;23.078;2023-05-01T03:28:55;96795.41;;;11.80;81.16
20015;BME280;61787;42.022;23.078;2023-05-01T03:29:57;96797.09;;;11.85;81.08
20015;BME280;61787;42.022;23.078;2023-05-01T03:30:58;96797.53;;;11.87;81.36
20015;BME280;61787;42.022;23.078;2023-05-01T03:32:00;96786.09;;;11.90;80.45
20015;BME280;61787;42.022;23.078;2023-05-01T03:33:02;96790.78;;;11.93;80.16
20015;BME280;61787;42.022;23.078;2023-05-01T03:34:04;96789.66;;;11.94;80.42
20015;BME280;61787;42.022;23.078;2023-05-01T03:35:06;96785.94;;;11.99;79.74
20015;BME280;61787;42.022;23.078;2023-05-01T03:36:08;96799.16;;;12.04;80.31
20015;BME280;61787;42.022;23.078;2023-05-01T03:37:12;96797.34;;;12.08;80.32
20015;BME280;61787;42.022;23.078;2023-05-01T03:38:15;96790.94;;;12.12;79.70
20015;BME280;61787;42.022;23.078;2023-05-01T03:39:16;96789.09;;;12.16;79.08
20015;BME280;61787;42.022;23.078;2023-05-01T03:40:18;96792.34;;;12.22;79.22
20015;BME280;61787;42.022;23.078;2023-05-01T03:41:20;96790.19;;;12.27;79.21
20015;BME280;61787;42.022;23.078;2023-05-01T03:42:21;96795.31;;;12.32;78.96
20015;BME280;61787;42.022;23.078;2023-05-01T03:43:24;96799.31;;;12.38;78.78
20015;BME280;61787;42.022;23.078;2023-05-01T03:44:26;96794.81;;;12.43;78.10
20015;BME280;61787;42.022;23.078;2023-05-01T03:45:27;96790.28;;;12.47;77.58
20015;BME280;61787;42.022;23.078;2023-05-01T03:46:29;96796.56;;;12.51;77.49
20015;BME280;61787;42.022;23.078;2023-05-01T03:47:31;96787.72;;;12.50;77.70
20015;BME280;61787;42.022;23.078;2023-05-01T03:48:32;96798.09;;;12.52;77.28
20015;BME280;61787;42.022;23.078;2023-05-01T03:49:34;96783.53;;;12.53;77.33
20015;BME280;61787;42.022;23.078;2023-05-01T03:50:35;96792.06;;;12.55;77.21
20015;BME280;61787;42.022;23.078;2023-05-01T03:51:37;96795.59;;;12.59;76.93
20015;BME280;61787;42.022;23.078;2023-05-01T03:52:39;96794.50;;;12.60;76.74
20015;BME280;61787;42.022;23.078;2023-05-01T03:53:40;96795.69;;;12.62;77.28
20015;BME280;61787;42.022;23.078;2023-05-01T03:54:42;96796.94;;;12.65;76.97
20015;BME280;61787;42.022;23.078;2023-05-01T03:55:44;96804.75;;;12.70;76.64
20015;BME280;61787;42.022;23.078;2023-05-01T03:56:46;96800.06;;;12.67;76.21
20015;BME280;61787;42.022;23.078;2023-05-01T03:57:48;96812.19;;;12.61;76.82
20015;BME280;61787;42.022;23.078;2023-05-01T03:58:49;96808.97;;;12.55;77.10
20015;BME280;61787;42.022;23.078;2023-05-01T03:59:51;96805.75;;;12.50;77.69
20015;BME280;61787;42.022;23.078;2023-05-01T04:00:53;96811.44;;;12.32;79.54
20015;BME280;61787;42.022;23.078;2023-05-01T04:01:57;96809.00;;;12.27;79.87
20015;BME280;61787;42.022;23.078;2023-05-01T04:02:59;96813.72;;;12.30;80.01
20015;BME280;61787;42.022;23.078;2023-05-01T04:04:00;96817.53;;;12.29;80.01
20015;BME280;61787;42.022;23.078;2023-05-01T04:05:02;96814.56;;;12.34;80.03
20015;BME280;61787;42.022;23.078;2023-05-01T04:06:04;96805.94;;;12.41;79.70
20015;BME280;61787;42.022;23.078;2023-05-01T04:07:06;96820.31;;;12.49;79.35
20015;BME280;61787;42.022;23.078;2023-05-01T04:08:08;96819.63;;;12.52;79.11
20015;BME280;61787;42.022;23.078;2023-05-01T04:09:09;96813.56;;;12.55;78.34
20015;BME280;61787;42.022;23.078;2023-05-01T04:10:11;96818.94;;;12.55;78.25
20015;BME280;61787;42.022;23.078;2023-05-01T04:11:13;96819.53;;;12.48;77.96
20015;BME280;61787;42.022;23.078;2023-05-01T04:12:14;96817.88;;;12.44;79.04
20015;BME280;61787;42.022;23.078;2023-05-01T04:13:16;96817.19;;;12.47;78.66
20015;BME280;61787;42.022;23.078;2023-05-01T04:14:17;96820.25;;;12.45;78.73
20015;BME280;61787;42.022;23.078;2023-05-01T04:15:19;96817.19;;;12.47;79.29
20015;BME280;61787;42.022;23.078;2023-05-01T04:16:23;96817.31;;;12.50;79.00
20015;BME280;61787;42.022;23.078;2023-05-01T04:17:26;96824.34;;;12.55;79.46
20015;BME280;61787;42.022;23.078;2023-05-01T04:18:27;96821.59;;;12.67;78.76
20015;BME280;61787;42.022;23.078;2023-05-01T04:19:29;96824.88;;;12.76;78.11
20015;BME280;61787;42.022;23.078;2023-05-01T04:20:30;96826.53;;;12.80;78.31
20015;BME280;61787;42.022;23.078;2023-05-01T04:21:33;96821.69;;;12.86;78.15
20015;BME280;61787;42.022;23.078;2023-05-01T04:22:35;96829.50;;;12.91;77.71
20015;BME280;61787;42.022;23.078;2023-05-01T04:23:37;96826.81;;;12.91;77.33
20015;BME280;61787;42.022;23.078;2023-05-01T04:24:39;96822.81;;;12.85;78.08
20015;BME280;61787;42.022;23.078;2023-05-01T04:25:40;96824.44;;;12.90;78.86
20015;BME280;61787;42.022;23.078;2023-05-01T04:26:42;96822.28;;;12.95;79.16
20015;BME280;61787;42.022;23.078;2023-05-01T04:27:44;96824.72;;;13.00;79.25
20015;BME280;61787;42.022;23.078;2023-05-01T04:28:45;96828.72;;;13.06;79.11
20015;BME280;61787;42.022;23.078;2023-05-01T04:29:47;96828.88;;;13.13;79.18
20015;BME280;61787;42.022;23.078;2023-05-01T04:30:48;96832.22;;;13.22;78.71
20015;BME280;61787;42.022;23.078;2023-05-01T04:31:50;96832.03;;;13.31;78.45
20015;BME280;61787;42.022;23.078;2023-05-01T04:32:52;96831.47;;;13.41;78.12
20015;BME280;61787;42.022;23.078;2023-05-01T04:33:54;96831.38;;;13.53;77.42
20015;BME280;61787;42.022;23.078;2023-05-01T04:34:56;96839.34;;;13.65;77.15
20015;BME280;61787;42.022;23.078;2023-05-01T04:35:58;96840.63;;;13.72;76.04
20015;BME280;61787;42.022;23.078;2023-05-01T04:37:00;96835.75;;;13.77;75.80
20015;BME280;61787;42.022;23.078;2023-05-01T04:38:04;96837.44;;;13.85;74.37
20015;BME280;61787;42.022;23.078;2023-05-01T04:39:06;96838.31;;;13.89;73.75
20015;BME280;61787;42.022;23.078;2023-05-01T04:40:09;96835.41;;;13.98;72.30
20015;BME280;61787;42.022;23.078;2023-05-01T04:41:12;96836.19;;;13.98;72.55
20015;BME280;61787;42.022;23.078;2023-05-01T04:42:13;96835.06;;;13.99;72.68
20015;BME280;61787;42.022;23.078;2023-05-01T04:43:15;96839.75;;;14.02;72.72
20015;BME280;61787;42.022;23.078;2023-05-01T04:44:16;96831.66;;;14.02;72.52
20015;BME280;61787;42.022;23.078;2023-05-01T04:45:18;96832.38;;;13.99;73.10
20015;BME280;61787;42.022;23.078;2023-05-01T04:46:20;96833.91;;;14.00;72.66
20015;BME280;61787;42.022;23.078;2023-05-01T04:47:21;96831.66;;;14.02;72.95
20015;BME280;61787;42.022;23.078;2023-05-01T04:48:23;96832.09;;;14.04;72.89
20015;BME280;61787;42.022;23.078;2023-05-01T04:49:24;96837.91;;;14.06;72.82
20015;BME280;61787;42.022;23.078;2023-05-01T04:50:26;96834.06;;;14.07;73.09
20015;BME280;61787;42.022;23.078;2023-05-01T04:51:28;96832.22;;;14.12;73.02
20015;BME280;61787;42.022;23.078;2023-05-01T04:52:29;96828.84;;;14.15;73.46
20015;BME280;61787;42.022;23.078;2023-05-01T04:53:31;96840.47;;;14.19;72.52
20015;BME280;61787;42.022;23.078;2023-05-01T04:54:33;96835.97;;;14.26;72.45
20015;BME280;61787;42.022;23.078;2023-05-01T04:55:34;96836.75;;;14.27;72.82
20015;BME280;61787;42.022;23.078;2023-05-01T04:56:36;96840.69;;;14.29;72.44
20015;BME280;61787;42.022;23.078;2023-05-01T04:57:37;96836.75;;;14.27;72.47
20015;BME280;61787;42.022;23.078;2023-05-01T04:58:39;96839.03;;;14.25;72.77
20015;BME280;61787;42.022;23.078;2023-05-01T04:59:41;96840.53;;;14.22;72.39
20015;BME280;61787;42.022;23.078;2023-05-01T05:00:43;96840.75;;;14.14;71.70
20015;BME280;61787;42.022;23.078;2023-05-01T05:01:45;96843.44;;;14.14;71.89
20015;BME280;61787;42.022;23.078;2023-05-01T05:02:46;96841.53;;;14.14;71.67
20015;BME280;61787;42.022;23.078;2023-05-01T05:03:48;96842.72;;;14.17;71.72
20015;BME280;61787;42.022;23.078;2023-05-01T05:04:50;96841.19;;;14.16;71.67
20015;BME280;61787;42.022;23.078;2023-05-01T05:05:54;96841.47;;;14.11;71.92
20015;BME280;61787;42.022;23.078;2023-05-01T05:06:56;96846.84;;;14.11;72.39
20015;BME280;61787;42.022;23.078;2023-05-01T05:07:58;96845.28;;;14.09;72.12
20015;BME280;61787;42.022;23.078;2023-05-01T05:09:00;96843.28;;;14.06;71.92
20015;BME280;61787;42.022;23.078;2023-05-01T05:10:01;96844.84;;;14.07;72.30
20015;BME280;61787;42.022;23.078;2023-05-01T05:11:03;96842.66;;;14.13;72.30
20015;BME280;61787;42.022;23.078;2023-05-01T05:12:04;96847.25;;;14.13;71.39
20015;BME280;61787;42.022;23.078;2023-05-01T05:13:06;96841.94;;;14.16;71.03
20015;BME280;61787;42.022;23.078;2023-05-01T05:14:08;96845.06;;;14.18;70.42
20015;BME280;61787;42.022;23.078;2023-05-01T05:15:10;96842.81;;;14.20;70.55
20015;BME280;61787;42.022;23.078;2023-05-01T05:16:12;96844.00;;;14.23;70.80
20015;BME280;61787;42.022;23.078;2023-05-01T05:17:14;96844.44;;;14.25;70.32
20015;BME280;61787;42.022;23.078;2023-05-01T05:18:15;96839.03;;;14.25;70.34
20015;BME280;61787;42.022;23.078;2023-05-01T05:19:17;96849.41;;;14.23;70.57
20015;BME280;61787;42.022;23.078;2023-05-01T05:20:19;96851.25;;;14.19;71.47
20015;BME280;61787;42.022;23.078;2023-05-01T05:21:20;96845.69;;;14.12;71.59
20015;BME280;61787;42.022;23.078;2023-05-01T05:22:22;96849.28;;;14.16;71.57
20015;BME280;61787;42.022;23.078;2023-05-01T05:23:24;96848.91;;;14.17;71.59
20015;BME280;61787;42.022;23.078;2023-05-01T05:24:26;96847.25;;;14.13;71.45
20015;BME280;61787;42.022;23.078;2023-05-01T05:25:27;96857.38;;;14.16;71.90
20015;BME280;61787;42.022;23.078;2023-05-01T05:26:29;96849.69;;;14.18;72.43
20015;BME280;61787;42.022;23.078;2023-05-01T05:27:31;96859.78;;;14.21;73.11
20015;BME280;61787;42.022;23.078;2023-05-01T05:28:36;96859.78;;;14.21;74.59
20015;BME280;61787;42.022;23.078;2023-05-01T05:29:38;96855.34;;;14.32;74.15
20015;BME280;61787;42.022;23.078;2023-05-01T05:30:40;96857.59;;;14.45;74.97
20015;BME280;61787;42.022;23.078;2023-05-01T05:31:41;96859.63;;;14.52;75.35
20015;BME280;61787;42.022;23.078;2023-05-01T05:32:45;96855.44;;;14.55;73.23
20015;BME280;61787;42.022;23.078;2023-05-01T05:33:47;96850.91;;;14.39;73.96
20015;BME280;61787;42.022;23.078;2023-05-01T05:34:49;96857.16;;;14.43;75.33
20015;BME280;61787;42.022;23.078;2023-05-01T05:35:51;96858.22;;;14.58;74.68
20015;BME280;61787;42.022;23.078;2023-05-01T05:36:52;96862.69;;;14.50;73.31
20015;BME280;61787;42.022;23.078;2023-05-01T05:37:54;96858.22;;;14.58;73.60
20015;BME280;61787;42.022;23.078;2023-05-01T05:38:55;96861.88;;;14.69;73.10
20015;BME280;61787;42.022;23.078;2023-05-01T05:39:57;96855.97;;;14.83;72.78
20015;BME280;61787;42.022;23.078;2023-05-01T05:40:59;96867.44;;;14.99;72.23
20015;BME280;61787;42.022;23.078;2023-05-01T05:42:02;96856.09;;;15.13;72.29
20015;BME280;61787;42.022;23.078;2023-05-01T05:43:04;96861.84;;;15.34;70.77
20015;BME280;61787;42.022;23.078;2023-05-01T05:44:05;96860.34;;;15.36;69.92